NSZ2766 EFHK-EGKK
Flight info
| Callsign | NSZ2766 |
|---|---|
| Flight time | N/A |
| Altitude | 34000 |
| Route | KUVEM Y366 USITU DCT VADIN DCT AMADA DCT LONAM DCT BINBO DCT AKOKO N866 BUKUT P7 BARMI |
| Aircraft | B738/M-SDE2E3FGHIRWXY/LB1 |
Departure
| Time | 2026-05-07 17:24 |
|---|---|
| Airport | Helsinki Vantaa Airport (EFHK) |
Arrival
| Time | N/A |
|---|---|
| Airport | London Gatwick Airport (EGKK) |
| Time | Latitude | Longitude | Altitude | Speed | Heading |
|---|---|---|---|---|---|
| 2026-05-07 16:56 | 60.31786 | 24.97099 | 161 ft | 0 kts | 242° |
| 2026-05-07 17:11 | 60.31787 | 24.97105 | 161 ft | 5 kts | 242° |
| 2026-05-07 17:11 | 60.31806 | 24.97181 | 161 ft | 2 kts | 255° |
| 2026-05-07 17:11 | 60.31807 | 24.97205 | 161 ft | 2 kts | 303° |
| 2026-05-07 17:11 | 60.31799 | 24.97221 | 161 ft | 2 kts | 329° |
| 2026-05-07 17:12 | 60.31792 | 24.97229 | 161 ft | 0 kts | 332° |
| 2026-05-07 17:17 | 60.31806 | 24.97216 | 161 ft | 5 kts | 334° |
| 2026-05-07 17:17 | 60.31856 | 24.97161 | 161 ft | 11 kts | 332° |
| 2026-05-07 17:17 | 60.31940 | 24.97076 | 161 ft | 16 kts | 333° |
| 2026-05-07 17:17 | 60.32053 | 24.96956 | 162 ft | 21 kts | 330° |
| 2026-05-07 17:18 | 60.32191 | 24.96795 | 163 ft | 25 kts | 330° |
| 2026-05-07 17:18 | 60.32327 | 24.96638 | 163 ft | 6 kts | 328° |
| 2026-05-07 17:18 | 60.32338 | 24.96624 | 163 ft | 0 kts | 329° |
| 2026-05-07 17:19 | 60.32343 | 24.96618 | 163 ft | 3 kts | 329° |
| 2026-05-07 17:19 | 60.32381 | 24.96577 | 163 ft | 9 kts | 333° |
| 2026-05-07 17:19 | 60.32457 | 24.96486 | 161 ft | 16 kts | 330° |
| 2026-05-07 17:19 | 60.32563 | 24.96362 | 164 ft | 19 kts | 329° |
| 2026-05-07 17:20 | 60.32689 | 24.96214 | 166 ft | 23 kts | 330° |
| 2026-05-07 17:20 | 60.32834 | 24.96046 | 169 ft | 25 kts | 330° |
| 2026-05-07 17:20 | 60.32919 | 24.95948 | 171 ft | 13 kts | 328° |
| 2026-05-07 17:20 | 60.33015 | 24.95843 | 172 ft | 18 kts | 333° |
| 2026-05-07 17:21 | 60.33120 | 24.95674 | 174 ft | 21 kts | 317° |
| 2026-05-07 17:21 | 60.33204 | 24.95434 | 177 ft | 22 kts | 264° |
| 2026-05-07 17:21 | 60.33121 | 24.95249 | 180 ft | 15 kts | 227° |
| 2026-05-07 17:21 | 60.33111 | 24.95041 | 183 ft | 16 kts | 275° |
| 2026-05-07 17:22 | 60.33116 | 24.94802 | 186 ft | 18 kts | 271° |
| 2026-05-07 17:22 | 60.33122 | 24.94536 | 189 ft | 20 kts | 271° |
| 2026-05-07 17:22 | 60.33083 | 24.94315 | 191 ft | 0 kts | 228° |
| 2026-05-07 17:23 | 60.32970 | 24.94069 | 185 ft | 65 kts | 227° |
| 2026-05-07 17:23 | 60.32464 | 24.92972 | 170 ft | 145 kts | 226° |
| 2026-05-07 17:24 | 60.31657 | 24.91318 | 683 ft | 174 kts | 225° |
| 2026-05-07 17:24 | 60.30796 | 24.89459 | 1583 ft | 194 kts | 226° |
| 2026-05-07 17:24 | 60.29827 | 24.87464 | 2464 ft | 202 kts | 228° |
| 2026-05-07 17:24 | 60.29139 | 24.84950 | 3031 ft | 218 kts | 262° |
| 2026-05-07 17:25 | 60.29348 | 24.81897 | 3568 ft | 225 kts | 287° |
| 2026-05-07 17:25 | 60.29785 | 24.78815 | 4183 ft | 235 kts | 289° |
| 2026-05-07 17:25 | 60.30017 | 24.75416 | 4639 ft | 255 kts | 261° |
| 2026-05-07 17:25 | 60.29391 | 24.72018 | 5420 ft | 262 kts | 248° |
| 2026-05-07 17:26 | 60.28628 | 24.68636 | 6232 ft | 267 kts | 248° |
| 2026-05-07 17:26 | 60.27872 | 24.65197 | 7051 ft | 269 kts | 249° |
| 2026-05-07 17:26 | 60.27144 | 24.61774 | 7903 ft | 269 kts | 249° |
| 2026-05-07 17:26 | 60.26418 | 24.58283 | 8775 ft | 270 kts | 249° |
| 2026-05-07 17:27 | 60.25695 | 24.54779 | 9600 ft | 272 kts | 249° |
| 2026-05-07 17:27 | 60.24968 | 24.51243 | 10405 ft | 274 kts | 249° |
| 2026-05-07 17:27 | 60.24272 | 24.47679 | 11202 ft | 274 kts | 254° |
| 2026-05-07 17:27 | 60.23806 | 24.43842 | 11499 ft | 293 kts | 260° |
| 2026-05-07 17:28 | 60.23427 | 24.39651 | 11695 ft | 314 kts | 261° |
| 2026-05-07 17:28 | 60.23041 | 24.35169 | 11914 ft | 334 kts | 261° |
| 2026-05-07 17:28 | 60.22628 | 24.30526 | 12466 ft | 341 kts | 261° |
| 2026-05-07 17:28 | 60.22200 | 24.25880 | 13294 ft | 340 kts | 260° |
| 2026-05-07 17:29 | 60.21757 | 24.21215 | 14116 ft | 340 kts | 260° |
| 2026-05-07 17:29 | 60.21305 | 24.16534 | 14805 ft | 341 kts | 260° |
| 2026-05-07 17:29 | 60.20845 | 24.11821 | 15488 ft | 343 kts | 260° |
| 2026-05-07 17:29 | 60.20382 | 24.07111 | 16182 ft | 344 kts | 260° |
| 2026-05-07 17:30 | 60.19917 | 24.02392 | 16863 ft | 345 kts | 260° |
| 2026-05-07 17:30 | 60.19446 | 23.97647 | 17526 ft | 347 kts | 260° |
| 2026-05-07 17:30 | 60.18969 | 23.92880 | 18205 ft | 348 kts | 259° |
| 2026-05-07 17:30 | 60.18438 | 23.88118 | 18781 ft | 350 kts | 258° |
| 2026-05-07 17:31 | 60.17865 | 23.83331 | 19325 ft | 352 kts | 257° |
| 2026-05-07 17:31 | 60.17281 | 23.78549 | 19875 ft | 354 kts | 257° |
| 2026-05-07 17:31 | 60.16691 | 23.73721 | 20424 ft | 355 kts | 257° |
| 2026-05-07 17:31 | 60.16100 | 23.68875 | 20947 ft | 358 kts | 257° |
| 2026-05-07 17:32 | 60.15509 | 23.64014 | 21463 ft | 360 kts | 257° |
| 2026-05-07 17:32 | 60.14921 | 23.59181 | 21972 ft | 361 kts | 257° |
| 2026-05-07 17:32 | 60.14324 | 23.54266 | 22476 ft | 363 kts | 257° |
| 2026-05-07 17:32 | 60.13918 | 23.50933 | 22785 ft | 365 kts | 257° |
| 2026-05-07 17:33 | 60.13115 | 23.44358 | 23424 ft | 368 kts | 257° |
| 2026-05-07 17:33 | 60.12503 | 23.39363 | 23852 ft | 370 kts | 257° |
| 2026-05-07 17:33 | 60.11885 | 23.34338 | 24218 ft | 372 kts | 257° |
| 2026-05-07 17:33 | 60.11262 | 23.29284 | 24570 ft | 374 kts | 257° |
| 2026-05-07 17:34 | 60.10631 | 23.24190 | 24925 ft | 377 kts | 257° |
| 2026-05-07 17:34 | 60.09997 | 23.19086 | 25274 ft | 379 kts | 257° |
| 2026-05-07 17:34 | 60.09365 | 23.14011 | 25611 ft | 381 kts | 257° |
| 2026-05-07 17:34 | 60.08718 | 23.08836 | 25946 ft | 383 kts | 257° |
| 2026-05-07 17:35 | 60.08066 | 23.03648 | 26261 ft | 385 kts | 257° |
| 2026-05-07 17:35 | 60.07408 | 22.98420 | 26581 ft | 388 kts | 257° |
| 2026-05-07 17:35 | 60.06742 | 22.93151 | 26895 ft | 390 kts | 257° |
| 2026-05-07 17:35 | 60.06073 | 22.87872 | 27210 ft | 392 kts | 257° |
| 2026-05-07 17:36 | 60.05399 | 22.82575 | 27502 ft | 394 kts | 257° |
| 2026-05-07 17:36 | 60.04728 | 22.77311 | 27782 ft | 396 kts | 257° |
| 2026-05-07 17:36 | 60.04043 | 22.71966 | 28133 ft | 397 kts | 257° |
| 2026-05-07 17:36 | 60.03355 | 22.66626 | 28582 ft | 395 kts | 257° |
| 2026-05-07 17:37 | 60.02667 | 22.61312 | 29055 ft | 393 kts | 257° |
| 2026-05-07 17:37 | 60.01981 | 22.56029 | 29446 ft | 392 kts | 257° |
| 2026-05-07 17:37 | 60.01293 | 22.50753 | 29797 ft | 393 kts | 257° |
| 2026-05-07 17:37 | 60.00602 | 22.45460 | 30190 ft | 392 kts | 257° |
| 2026-05-07 17:38 | 60.00146 | 22.41976 | 30415 ft | 391 kts | 257° |
| 2026-05-07 17:38 | 59.99455 | 22.36716 | 30675 ft | 392 kts | 257° |
| 2026-05-07 17:38 | 59.98759 | 22.31426 | 30910 ft | 394 kts | 257° |
| 2026-05-07 17:38 | 59.97830 | 22.24405 | 31289 ft | 394 kts | 257° |
| 2026-05-07 17:39 | 59.97129 | 22.19120 | 31558 ft | 394 kts | 257° |
| 2026-05-07 17:39 | 59.96653 | 22.15546 | 31737 ft | 395 kts | 257° |
| 2026-05-07 17:39 | 59.95945 | 22.10243 | 31995 ft | 395 kts | 257° |
| 2026-05-07 17:39 | 59.95236 | 22.04956 | 32268 ft | 395 kts | 257° |
| 2026-05-07 17:40 | 59.94523 | 21.99646 | 32528 ft | 396 kts | 257° |
| 2026-05-07 17:40 | 59.93809 | 21.94352 | 32779 ft | 396 kts | 257° |
| 2026-05-07 17:40 | 59.93090 | 21.89042 | 33042 ft | 396 kts | 257° |
| 2026-05-07 17:40 | 59.92379 | 21.83809 | 33301 ft | 396 kts | 257° |
| 2026-05-07 17:41 | 59.91657 | 21.78510 | 33552 ft | 397 kts | 256° |
| 2026-05-07 17:41 | 59.90931 | 21.73199 | 33802 ft | 397 kts | 256° |
| 2026-05-07 17:41 | 59.90203 | 21.67889 | 34066 ft | 397 kts | 256° |
| 2026-05-07 17:41 | 59.89471 | 21.62572 | 34113 ft | 400 kts | 256° |
| 2026-05-07 17:42 | 59.87995 | 21.51889 | 34118 ft | 398 kts | 256° |
| 2026-05-07 17:42 | 59.86522 | 21.41314 | 34130 ft | 394 kts | 256° |
| 2026-05-07 17:43 | 59.84699 | 21.31120 | 34144 ft | 394 kts | 249° |
| 2026-05-07 17:43 | 59.82442 | 21.21186 | 34138 ft | 393 kts | 249° |
| 2026-05-07 17:44 | 59.80183 | 21.11280 | 34136 ft | 393 kts | 249° |
| 2026-05-07 17:44 | 59.77926 | 21.01359 | 34139 ft | 395 kts | 249° |
| 2026-05-07 17:45 | 59.75659 | 20.91407 | 34137 ft | 397 kts | 249° |
| 2026-05-07 17:45 | 59.73375 | 20.81412 | 34140 ft | 399 kts | 249° |
| 2026-05-07 17:46 | 59.71074 | 20.71392 | 34141 ft | 401 kts | 249° |
| 2026-05-07 17:46 | 59.68766 | 20.61386 | 34140 ft | 402 kts | 249° |
| 2026-05-07 17:47 | 59.66432 | 20.51317 | 34146 ft | 403 kts | 249° |
| 2026-05-07 17:47 | 59.64069 | 20.41173 | 34142 ft | 403 kts | 249° |
| 2026-05-07 17:48 | 59.61730 | 20.31176 | 34146 ft | 403 kts | 248° |
| 2026-05-07 17:48 | 59.59370 | 20.21137 | 34146 ft | 402 kts | 248° |
| 2026-05-07 17:49 | 59.57006 | 20.11128 | 34141 ft | 401 kts | 248° |
| 2026-05-07 17:49 | 59.54646 | 20.01179 | 34149 ft | 400 kts | 248° |
| 2026-05-07 17:50 | 59.52280 | 19.91253 | 34150 ft | 400 kts | 248° |
| 2026-05-07 17:50 | 59.49913 | 19.81367 | 34154 ft | 399 kts | 248° |
| 2026-05-07 17:51 | 59.47552 | 19.71550 | 34145 ft | 398 kts | 248° |
| 2026-05-07 17:51 | 59.45169 | 19.61684 | 34154 ft | 400 kts | 248° |
| 2026-05-07 17:52 | 59.42768 | 19.51793 | 34147 ft | 401 kts | 248° |
| 2026-05-07 17:52 | 59.40358 | 19.41908 | 34142 ft | 400 kts | 248° |
| 2026-05-07 17:53 | 59.37947 | 19.32066 | 34143 ft | 399 kts | 248° |
| 2026-05-07 17:53 | 59.35532 | 19.22247 | 34145 ft | 399 kts | 248° |
| 2026-05-07 17:54 | 59.33111 | 19.12451 | 34145 ft | 399 kts | 248° |
| 2026-05-07 17:54 | 59.30698 | 19.02729 | 34147 ft | 399 kts | 248° |
| 2026-05-07 17:55 | 59.28262 | 18.92957 | 34147 ft | 400 kts | 248° |
| 2026-05-07 17:55 | 59.25811 | 18.83167 | 34145 ft | 401 kts | 248° |
| 2026-05-07 17:56 | 59.23348 | 18.73378 | 34136 ft | 401 kts | 248° |
| 2026-05-07 17:56 | 59.20875 | 18.63587 | 34141 ft | 402 kts | 248° |
| 2026-05-07 17:57 | 59.18806 | 18.55432 | 34140 ft | 403 kts | 248° |
| 2026-05-07 17:57 | 59.15885 | 18.43968 | 34134 ft | 405 kts | 248° |
| 2026-05-07 17:58 | 59.13386 | 18.34209 | 34135 ft | 406 kts | 248° |
| 2026-05-07 17:58 | 59.10858 | 18.24376 | 34134 ft | 406 kts | 248° |
| 2026-05-07 17:59 | 59.08316 | 18.14533 | 34135 ft | 407 kts | 248° |
| 2026-05-07 17:59 | 59.05760 | 18.04683 | 34135 ft | 408 kts | 248° |
| 2026-05-07 18:00 | 59.03197 | 17.94847 | 34131 ft | 409 kts | 248° |
| 2026-05-07 18:00 | 59.00620 | 17.85003 | 34130 ft | 409 kts | 247° |
| 2026-05-07 18:01 | 58.98039 | 17.75186 | 34128 ft | 408 kts | 247° |
| 2026-05-07 18:01 | 58.95460 | 17.65420 | 34129 ft | 406 kts | 247° |
| 2026-05-07 18:02 | 58.91588 | 17.50832 | 34138 ft | 405 kts | 247° |
| 2026-05-07 18:03 | 58.89016 | 17.41194 | 34135 ft | 405 kts | 247° |
| 2026-05-07 18:03 | 58.86418 | 17.31501 | 34134 ft | 406 kts | 247° |
| 2026-05-07 18:04 | 58.83807 | 17.21797 | 34134 ft | 407 kts | 247° |
| 2026-05-07 18:04 | 58.81182 | 17.12088 | 34135 ft | 408 kts | 247° |
| 2026-05-07 18:05 | 58.78547 | 17.02383 | 34125 ft | 409 kts | 247° |
| 2026-05-07 18:05 | 58.75895 | 16.92656 | 34131 ft | 410 kts | 247° |
| 2026-05-07 18:06 | 58.73229 | 16.82920 | 34130 ft | 411 kts | 246° |
| 2026-05-07 18:06 | 58.70548 | 16.73173 | 34134 ft | 412 kts | 246° |
| 2026-05-07 18:07 | 58.67870 | 16.63477 | 34130 ft | 413 kts | 246° |
| 2026-05-07 18:07 | 58.65165 | 16.53725 | 34125 ft | 414 kts | 246° |
| 2026-05-07 18:08 | 58.62446 | 16.43964 | 34128 ft | 414 kts | 246° |
| 2026-05-07 18:08 | 58.59716 | 16.34207 | 34130 ft | 415 kts | 246° |
| 2026-05-07 18:09 | 58.56976 | 16.24455 | 34129 ft | 415 kts | 246° |
| 2026-05-07 18:09 | 58.54244 | 16.14775 | 34129 ft | 416 kts | 246° |
| 2026-05-07 18:10 | 58.51488 | 16.05047 | 34141 ft | 416 kts | 246° |
| 2026-05-07 18:10 | 58.48723 | 15.95330 | 34102 ft | 416 kts | 245° |
| 2026-05-07 18:11 | 58.45945 | 15.85609 | 34095 ft | 417 kts | 245° |
| 2026-05-07 18:11 | 58.43159 | 15.75898 | 34097 ft | 417 kts | 245° |
| 2026-05-07 18:12 | 58.40364 | 15.66198 | 34098 ft | 417 kts | 245° |
| 2026-05-07 18:12 | 58.37554 | 15.56491 | 34106 ft | 418 kts | 245° |
| 2026-05-07 18:13 | 58.34754 | 15.46854 | 34104 ft | 418 kts | 245° |
| 2026-05-07 18:13 | 58.31926 | 15.37164 | 34104 ft | 419 kts | 245° |
| 2026-05-07 18:14 | 58.29083 | 15.27462 | 34104 ft | 420 kts | 245° |
| 2026-05-07 18:14 | 58.26228 | 15.17762 | 34105 ft | 420 kts | 244° |
| 2026-05-07 18:15 | 58.23358 | 15.08047 | 34106 ft | 422 kts | 244° |
| 2026-05-07 18:15 | 58.20487 | 14.98370 | 34109 ft | 424 kts | 244° |
| 2026-05-07 18:16 | 58.17560 | 14.88548 | 34113 ft | 425 kts | 244° |
| 2026-05-07 18:16 | 58.14669 | 14.78889 | 34112 ft | 426 kts | 244° |
| 2026-05-07 18:17 | 58.11735 | 14.69125 | 34105 ft | 426 kts | 244° |
| 2026-05-07 18:17 | 58.08797 | 14.59391 | 34110 ft | 427 kts | 244° |
| 2026-05-07 18:18 | 58.05841 | 14.49636 | 34114 ft | 427 kts | 243° |
| 2026-05-07 18:18 | 58.02884 | 14.39919 | 34104 ft | 427 kts | 243° |
| 2026-05-07 18:19 | 57.99935 | 14.30267 | 34106 ft | 426 kts | 243° |
| 2026-05-07 18:19 | 57.96964 | 14.20583 | 34106 ft | 426 kts | 243° |
| 2026-05-07 18:20 | 57.93989 | 14.10927 | 34106 ft | 426 kts | 243° |
| 2026-05-07 18:20 | 57.91005 | 14.01278 | 34104 ft | 426 kts | 243° |
| 2026-05-07 18:21 | 57.88014 | 13.91652 | 34103 ft | 426 kts | 243° |
| 2026-05-07 18:21 | 57.85017 | 13.82042 | 34101 ft | 427 kts | 243° |
| 2026-05-07 18:22 | 57.82028 | 13.72498 | 34100 ft | 427 kts | 242° |
| 2026-05-07 18:22 | 57.78990 | 13.62833 | 34105 ft | 428 kts | 242° |
| 2026-05-07 18:23 | 57.75977 | 13.53293 | 34108 ft | 428 kts | 242° |
| 2026-05-07 18:23 | 57.72934 | 13.43693 | 34106 ft | 429 kts | 242° |
| 2026-05-07 18:24 | 57.69876 | 13.34086 | 34105 ft | 430 kts | 242° |
| 2026-05-07 18:24 | 57.66807 | 13.24484 | 34105 ft | 431 kts | 242° |
| 2026-05-07 18:25 | 57.64246 | 13.16499 | 34110 ft | 431 kts | 242° |
| 2026-05-07 18:25 | 57.61154 | 13.06896 | 34107 ft | 431 kts | 242° |
| 2026-05-07 18:26 | 57.58053 | 12.97305 | 34106 ft | 432 kts | 242° |
| 2026-05-07 18:26 | 57.54945 | 12.87729 | 34103 ft | 432 kts | 241° |
| 2026-05-07 18:27 | 57.51822 | 12.78148 | 34109 ft | 433 kts | 241° |
| 2026-05-07 18:27 | 57.48685 | 12.68563 | 34109 ft | 433 kts | 241° |
| 2026-05-07 18:28 | 57.45563 | 12.59059 | 34114 ft | 433 kts | 241° |
| 2026-05-07 18:28 | 57.42412 | 12.49506 | 34111 ft | 433 kts | 241° |
| 2026-05-07 18:29 | 57.39257 | 12.39979 | 34125 ft | 433 kts | 240° |
| 2026-05-07 18:29 | 57.36460 | 12.31567 | 34119 ft | 433 kts | 240° |
| 2026-05-07 18:30 | 57.35798 | 12.29579 | 34119 ft | 433 kts | 240° |
| 2026-05-07 18:30 | 57.34875 | 12.26812 | 34129 ft | 433 kts | 240° |
| 2026-05-07 18:31 | 57.31705 | 12.17330 | 34131 ft | 433 kts | 240° |
| 2026-05-07 18:31 | 57.31008 | 12.15250 | 34127 ft | 433 kts | 240° |
| 2026-05-07 18:32 | 57.28818 | 12.08728 | 34135 ft | 434 kts | 240° |
| 2026-05-07 18:32 | 57.25622 | 11.99238 | 34137 ft | 435 kts | 240° |
| 2026-05-07 18:33 | 57.22407 | 11.89732 | 34129 ft | 437 kts | 240° |
| 2026-05-07 18:33 | 57.19198 | 11.80279 | 34135 ft | 438 kts | 240° |
| 2026-05-07 18:34 | 57.15957 | 11.70763 | 34137 ft | 438 kts | 240° |
| 2026-05-07 18:34 | 57.12693 | 11.61284 | 34135 ft | 438 kts | 239° |
| 2026-05-07 18:35 | 57.09310 | 11.51940 | 34135 ft | 438 kts | 238° |
| 2026-05-07 18:35 | 57.05899 | 11.42657 | 34134 ft | 438 kts | 238° |
| 2026-05-07 18:36 | 57.02492 | 11.33381 | 34141 ft | 438 kts | 238° |
| 2026-05-07 18:36 | 56.99089 | 11.24118 | 34141 ft | 437 kts | 238° |
| 2026-05-07 18:37 | 56.95691 | 11.14887 | 34143 ft | 437 kts | 238° |
| 2026-05-07 18:37 | 56.92302 | 11.05718 | 34140 ft | 436 kts | 237° |
| 2026-05-07 18:38 | 56.88890 | 10.96520 | 34140 ft | 436 kts | 237° |
| 2026-05-07 18:38 | 56.85478 | 10.87358 | 34139 ft | 436 kts | 237° |
| 2026-05-07 18:39 | 56.82051 | 10.78192 | 34137 ft | 436 kts | 237° |
| 2026-05-07 18:39 | 56.78622 | 10.69053 | 34135 ft | 437 kts | 237° |
| 2026-05-07 18:40 | 56.75180 | 10.59916 | 34135 ft | 437 kts | 237° |
| 2026-05-07 18:40 | 56.71727 | 10.50782 | 34133 ft | 437 kts | 237° |
| 2026-05-07 18:41 | 56.68271 | 10.41676 | 34134 ft | 438 kts | 236° |
| 2026-05-07 18:41 | 56.64798 | 10.32562 | 34133 ft | 438 kts | 236° |
| 2026-05-07 18:42 | 56.61313 | 10.23446 | 34133 ft | 439 kts | 236° |
| 2026-05-07 18:42 | 56.57826 | 10.14363 | 34130 ft | 439 kts | 236° |
| 2026-05-07 18:43 | 56.54345 | 10.05326 | 34125 ft | 440 kts | 236° |
| 2026-05-07 18:43 | 56.50839 | 9.96260 | 34129 ft | 440 kts | 236° |
| 2026-05-07 18:44 | 56.47318 | 9.87189 | 34127 ft | 440 kts | 236° |
| 2026-05-07 18:44 | 56.43790 | 9.78133 | 34125 ft | 440 kts | 236° |
| 2026-05-07 18:45 | 56.40252 | 9.69086 | 34123 ft | 440 kts | 236° |
| 2026-05-07 18:45 | 56.36713 | 9.60070 | 34116 ft | 440 kts | 235° |
| 2026-05-07 18:46 | 56.33185 | 9.51115 | 34117 ft | 440 kts | 235° |
| 2026-05-07 18:46 | 56.29633 | 9.42131 | 34108 ft | 441 kts | 235° |
| 2026-05-07 18:47 | 56.26066 | 9.33144 | 34109 ft | 440 kts | 235° |
| 2026-05-07 18:47 | 56.25463 | 9.31630 | 34106 ft | 440 kts | 235° |